createdAt,value
2017-11-21T00:01:53.702Z,6.10
2017-11-21T00:04:19.711Z,6.10
2017-11-21T00:06:46.651Z,6.00
2017-11-21T00:09:13.392Z,5.90
2017-11-21T00:11:40.112Z,5.80
2017-11-21T00:14:06.197Z,5.80
2017-11-21T00:16:32.198Z,5.80
2017-11-21T00:18:59.110Z,5.50
2017-11-21T00:21:25.144Z,5.50
2017-11-21T00:23:51.869Z,5.50
2017-11-21T00:26:17.933Z,5.40
2017-11-21T00:28:43.969Z,5.60
2017-11-21T00:31:09.951Z,5.70
2017-11-21T00:33:36.702Z,5.70
2017-11-21T00:36:02.770Z,5.70
2017-11-21T00:38:28.777Z,5.50
2017-11-21T00:40:54.776Z,5.60
2017-11-21T00:43:20.803Z,5.70
2017-11-21T00:45:53.814Z,5.50
2017-11-21T00:48:19.805Z,5.50
2017-11-21T00:50:45.823Z,5.60
2017-11-21T00:53:12.552Z,5.50
2017-11-21T00:55:39.294Z,5.50
2017-11-21T00:58:06.009Z,5.50
2017-11-21T01:00:32.001Z,5.50
2017-11-21T01:02:57.988Z,5.40
2017-11-21T01:05:24.058Z,5.40
2017-11-21T01:07:50.065Z,5.40
2017-11-21T01:10:16.085Z,5.40
2017-11-21T01:12:42.084Z,5.30
2017-11-21T01:15:08.079Z,5.40
2017-11-21T01:17:34.822Z,5.60
2017-11-21T01:20:01.537Z,5.60
2017-11-21T01:22:27.518Z,5.70
2017-11-21T01:24:53.526Z,5.80
2017-11-21T01:27:19.511Z,5.90
2017-11-21T01:29:45.500Z,6.00
2017-11-21T01:32:11.533Z,6.10
2017-11-21T01:34:37.508Z,6.00
2017-11-21T01:37:03.486Z,5.50
2017-11-21T01:39:29.515Z,5.40
2017-11-21T01:41:55.504Z,5.40
2017-11-21T01:44:21.480Z,5.40
2017-11-21T01:46:48.285Z,5.40
2017-11-21T01:49:14.263Z,5.40
2017-11-21T01:51:40.274Z,5.50
2017-11-21T01:54:06.242Z,5.40
2017-11-21T01:56:32.244Z,5.60
2017-11-21T01:58:58.238Z,5.50
2017-11-21T02:01:24.973Z,5.50
2017-11-21T02:03:51.693Z,5.60
2017-11-21T02:06:17.707Z,5.60
2017-11-21T02:08:43.703Z,5.60
2017-11-21T02:11:09.684Z,5.80
2017-11-21T02:13:35.678Z,6.00
2017-11-21T02:16:01.666Z,5.90
2017-11-21T02:18:27.662Z,5.90
2017-11-21T02:20:53.705Z,5.80
2017-11-21T02:23:19.684Z,6.00
2017-11-21T02:25:46.496Z,6.10
2017-11-21T02:28:12.754Z,6.10
2017-11-21T02:30:39.486Z,5.90
2017-11-21T02:33:06.232Z,5.70
2017-11-21T02:35:32.982Z,5.70
2017-11-21T02:37:58.978Z,5.70
2017-11-21T02:40:25.712Z,5.90
2017-11-21T02:42:52.057Z,5.90
2017-11-21T02:45:18.820Z,6.10
2017-11-21T02:47:44.876Z,6.10
2017-11-21T02:50:10.875Z,6.10
2017-11-21T02:52:36.887Z,6.00
2017-11-21T02:55:02.887Z,6.10
2017-11-21T02:57:29.638Z,6.20
2017-11-21T02:59:55.641Z,6.20
2017-11-21T03:02:22.594Z,6.30
2017-11-21T03:04:49.363Z,6.40
2017-11-21T03:07:15.397Z,6.40
2017-11-21T03:09:41.423Z,6.30
2017-11-21T03:12:07.399Z,6.20
2017-11-21T03:14:34.096Z,6.10
2017-11-21T03:17:00.136Z,6.10
2017-11-21T03:19:26.111Z,6.30
2017-11-21T03:22:04.546Z,6.30
2017-11-21T03:24:43.058Z,6.30
2017-11-21T03:27:10.035Z,6.30
2017-11-21T03:29:36.154Z,6.20
2017-11-21T03:32:02.142Z,6.20
2017-11-21T03:34:28.155Z,6.30
2017-11-21T03:36:54.138Z,6.30
2017-11-21T03:39:20.888Z,6.30
2017-11-21T03:41:47.643Z,6.40
2017-11-21T03:44:13.630Z,6.40
2017-11-21T03:46:39.635Z,6.40
2017-11-21T03:49:05.858Z,6.40
2017-11-21T03:51:31.857Z,6.50
2017-11-21T03:53:57.855Z,6.50
2017-11-21T03:56:23.855Z,6.50
2017-11-21T03:58:50.595Z,6.50
2017-11-21T04:01:17.353Z,6.40
2017-11-21T04:03:44.269Z,6.40
2017-11-21T04:06:10.288Z,6.60
2017-11-21T04:08:36.293Z,6.50
2017-11-21T04:11:02.313Z,6.50
2017-11-21T04:13:28.299Z,6.50
2017-11-21T04:15:54.310Z,6.50
2017-11-21T04:18:20.571Z,6.50
2017-11-21T04:20:46.548Z,6.50
2017-11-21T04:23:13.266Z,6.60
2017-11-21T04:25:40.041Z,6.60
2017-11-21T04:28:06.164Z,6.50
2017-11-21T04:30:32.162Z,6.50
2017-11-21T04:32:58.915Z,6.50
2017-11-21T04:35:25.680Z,6.40
2017-11-21T04:37:51.682Z,6.40
2017-11-21T04:40:17.693Z,6.50
2017-11-21T04:42:44.451Z,6.50
2017-11-21T04:45:10.461Z,6.50
2017-11-21T04:47:36.453Z,6.50
2017-11-21T04:50:02.456Z,6.40
2017-11-21T04:52:28.479Z,6.40
2017-11-21T04:54:54.488Z,6.40
2017-11-21T04:57:20.482Z,6.50
2017-11-21T04:59:46.508Z,6.60
2017-11-21T05:02:12.511Z,6.50
2017-11-21T05:04:39.250Z,6.50
2017-11-21T05:07:05.989Z,6.50
2017-11-21T05:09:32.727Z,6.50
2017-11-21T05:11:59.471Z,6.40
2017-11-21T05:14:25.682Z,6.40
2017-11-21T05:16:53.357Z,6.50
2017-11-21T05:19:20.075Z,6.50
2017-11-21T05:21:47.593Z,6.40
2017-11-21T05:24:13.588Z,6.40
2017-11-21T05:26:39.573Z,6.50
2017-11-21T05:29:05.957Z,6.40
2017-11-21T05:31:32.038Z,6.50
2017-11-21T05:33:58.881Z,6.50
2017-11-21T05:36:32.522Z,6.60
2017-11-21T05:38:58.519Z,6.50
2017-11-21T05:41:32.301Z,6.60
2017-11-21T05:43:59.027Z,6.60
2017-11-21T05:46:25.799Z,6.60
2017-11-21T05:48:52.824Z,6.40
2017-11-21T05:51:19.567Z,6.40
2017-11-21T05:53:46.350Z,6.30
2017-11-21T05:56:12.411Z,6.30
2017-11-21T05:58:38.401Z,6.40
2017-11-21T06:01:04.410Z,6.40
2017-11-21T06:03:30.418Z,6.00
2017-11-21T06:05:56.439Z,5.90
2017-11-21T06:08:22.747Z,6.00
2017-11-21T06:10:49.499Z,5.80
2017-11-21T06:13:16.264Z,5.80
2017-11-21T06:15:42.237Z,5.80
2017-11-21T06:18:08.215Z,5.70
2017-11-21T06:20:34.221Z,5.90
2017-11-21T06:23:00.230Z,5.80
2017-11-21T06:25:26.233Z,5.80
2017-11-21T06:27:52.951Z,5.80
2017-11-21T06:30:19.194Z,5.80
2017-11-21T06:32:45.176Z,5.90
2017-11-21T06:35:11.162Z,5.90
2017-11-21T06:37:37.199Z,5.90
2017-11-21T06:40:03.193Z,5.90
2017-11-21T06:42:29.922Z,5.90
2017-11-21T06:44:55.919Z,5.90
2017-11-21T06:47:22.223Z,6.00
2017-11-21T06:49:48.215Z,5.90
2017-11-21T06:52:14.994Z,5.90
2017-11-21T06:54:40.995Z,5.90
2017-11-21T06:57:06.973Z,5.90
2017-11-21T06:59:32.951Z,6.00
2017-11-21T07:01:58.934Z,6.20
2017-11-21T07:04:25.663Z,6.00
2017-11-21T07:06:51.665Z,6.00
2017-11-21T07:09:18.403Z,6.10
2017-11-21T07:11:44.378Z,6.10
2017-11-21T07:14:10.378Z,6.10
2017-11-21T07:16:37.113Z,6.10
2017-11-21T07:19:03.863Z,6.00
2017-11-21T07:21:29.866Z,5.90
2017-11-21T07:23:56.586Z,6.20
2017-11-21T07:26:22.593Z,6.20
2017-11-21T07:28:48.823Z,6.30
2017-11-21T07:31:15.075Z,6.30
2017-11-21T07:33:41.113Z,6.40
2017-11-21T07:36:07.855Z,6.10
2017-11-21T07:38:34.571Z,6.20
2017-11-21T07:41:00.804Z,6.20
2017-11-21T07:43:26.793Z,6.20
2017-11-21T07:45:52.764Z,6.20
2017-11-21T07:48:19.526Z,6.30
2017-11-21T07:50:45.527Z,6.30
2017-11-21T07:53:12.274Z,6.50
2017-11-21T07:55:39.015Z,6.60
2017-11-21T07:58:05.002Z,6.50
2017-11-21T08:00:30.989Z,6.70
2017-11-21T08:02:57.010Z,6.40
2017-11-21T08:05:22.994Z,6.40
2017-11-21T08:07:49.718Z,6.60
2017-11-21T08:10:16.784Z,6.60
2017-11-21T08:12:42.893Z,6.60
2017-11-21T08:15:09.619Z,6.20
2017-11-21T08:17:35.625Z,6.10
2017-11-21T08:20:01.622Z,6.30
2017-11-21T08:22:27.620Z,6.40
2017-11-21T08:24:53.671Z,6.50
2017-11-21T08:27:19.651Z,6.40
2017-11-21T08:29:46.365Z,6.60
2017-11-21T08:32:12.350Z,6.60
2017-11-21T08:34:38.375Z,6.50
2017-11-21T08:37:04.394Z,6.40
2017-11-21T08:39:30.686Z,6.40
2017-11-21T08:41:57.398Z,6.40
2017-11-21T08:44:24.138Z,6.40
2017-11-21T08:46:50.138Z,6.40
2017-11-21T08:49:16.126Z,6.20
2017-11-21T08:51:42.106Z,6.10
2017-11-21T08:54:08.105Z,6.00
2017-11-21T08:56:34.097Z,6.10
2017-11-21T08:59:00.066Z,6.00
2017-11-21T09:01:26.037Z,6.00
2017-11-21T09:03:52.199Z,6.20
2017-11-21T09:06:18.195Z,6.20
2017-11-21T09:08:44.279Z,6.30
2017-11-21T09:11:11.164Z,6.50
2017-11-21T09:13:37.164Z,6.50
2017-11-21T09:16:03.178Z,6.50
2017-11-21T09:18:30.124Z,6.90
2017-11-21T09:20:56.841Z,6.70
2017-11-21T09:23:23.582Z,6.50
2017-11-21T09:25:49.592Z,6.50
2017-11-21T09:28:15.581Z,6.60
2017-11-21T09:30:41.574Z,6.70
2017-11-21T09:33:07.582Z,6.80
2017-11-21T09:35:34.303Z,6.60
2017-11-21T09:38:00.288Z,6.50
2017-11-21T09:40:26.301Z,6.50
2017-11-21T09:42:52.313Z,6.70
2017-11-21T09:45:18.303Z,6.80
2017-11-21T09:47:45.023Z,6.80
2017-11-21T09:50:11.006Z,6.80
2017-11-21T09:52:36.982Z,6.90
2017-11-21T09:55:02.969Z,7.00
2017-11-21T09:57:28.958Z,7.00
2017-11-21T09:59:55.257Z,7.00
2017-11-21T10:02:21.985Z,6.70
2017-11-21T10:04:47.973Z,6.70
2017-11-21T10:07:13.974Z,6.60
2017-11-21T10:09:39.944Z,6.40
2017-11-21T10:12:05.926Z,6.50
2017-11-21T10:14:32.861Z,6.70
2017-11-21T10:16:58.854Z,6.90
2017-11-21T10:19:25.570Z,7.00
2017-11-21T10:21:51.581Z,6.90
2017-11-21T10:24:17.574Z,7.10
2017-11-21T10:26:43.566Z,7.00
2017-11-21T10:29:09.575Z,6.90
2017-11-21T10:31:36.308Z,6.50
2017-11-21T10:34:03.850Z,6.50
2017-11-21T10:36:30.089Z,6.40
2017-11-21T10:38:56.091Z,6.50
2017-11-21T10:41:22.066Z,6.60
2017-11-21T10:43:48.414Z,6.80
2017-11-21T10:46:14.400Z,6.80
2017-11-21T10:48:41.118Z,6.70
2017-11-21T10:51:07.143Z,6.70
2017-11-21T10:53:33.342Z,6.80
2017-11-21T10:55:59.652Z,6.90
2017-11-21T10:58:25.805Z,7.00
2017-11-21T11:00:51.788Z,7.10
2017-11-21T11:03:17.814Z,7.20
2017-11-21T11:05:43.819Z,7.00
2017-11-21T11:08:09.835Z,6.80
2017-11-21T11:10:36.157Z,6.80
2017-11-21T11:13:02.174Z,6.90
2017-11-21T11:15:28.970Z,7.00
2017-11-21T11:17:54.967Z,7.00
2017-11-21T11:20:20.970Z,7.00
2017-11-21T11:22:47.723Z,7.20
2017-11-21T11:25:14.027Z,7.10
2017-11-21T11:27:40.755Z,7.20
2017-11-21T11:30:06.868Z,7.10
2017-11-21T11:32:32.876Z,7.20
2017-11-21T11:34:58.876Z,7.20
2017-11-21T11:37:24.881Z,7.00
2017-11-21T11:39:50.904Z,6.80
2017-11-21T11:42:16.909Z,6.90
2017-11-21T11:44:43.634Z,7.00
2017-11-21T11:47:10.674Z,7.00
2017-11-21T11:49:36.649Z,7.00
2017-11-21T11:52:02.654Z,7.20
2017-11-21T11:54:28.721Z,7.10
2017-11-21T11:56:54.704Z,7.10
2017-11-21T11:59:20.698Z,7.30
2017-11-21T12:01:46.691Z,7.30
2017-11-21T12:04:12.650Z,7.30
2017-11-21T12:06:39.359Z,7.40
2017-11-21T12:09:06.962Z,7.40
2017-11-21T12:11:32.957Z,7.40
2017-11-21T12:13:59.673Z,7.50
2017-11-21T12:16:25.921Z,7.50
2017-11-21T12:18:52.658Z,7.40
2017-11-21T12:21:18.630Z,7.40
2017-11-21T12:23:44.913Z,7.40
2017-11-21T12:26:11.635Z,7.40
2017-11-21T12:28:37.614Z,7.40
2017-11-21T12:31:03.624Z,7.30
2017-11-21T12:33:29.694Z,7.00
2017-11-21T12:35:55.680Z,6.80
2017-11-21T12:38:21.876Z,6.80
2017-11-21T12:40:47.858Z,7.00
2017-11-21T12:43:13.834Z,7.20
2017-11-21T12:45:39.826Z,7.20
2017-11-21T12:48:06.566Z,7.40
2017-11-21T12:50:33.290Z,7.30
2017-11-21T12:52:59.441Z,7.30
2017-11-21T12:55:26.214Z,7.20
2017-11-21T12:57:52.226Z,7.20
2017-11-21T13:00:18.456Z,6.90
2017-11-21T13:02:44.437Z,6.80
2017-11-21T13:05:11.149Z,6.60
2017-11-21T13:07:37.735Z,6.60
2017-11-21T13:10:03.726Z,6.90
2017-11-21T13:12:29.867Z,7.10
2017-11-21T13:14:56.923Z,6.90
2017-11-21T13:17:23.669Z,6.80
2017-11-21T13:19:49.942Z,6.80
2017-11-21T13:22:15.930Z,6.90
2017-11-21T13:24:42.169Z,6.80
2017-11-21T13:27:08.159Z,7.10
2017-11-21T13:29:34.883Z,6.80
2017-11-21T13:32:00.902Z,6.80
2017-11-21T13:34:26.931Z,6.80
2017-11-21T13:36:53.682Z,7.10
2017-11-21T13:39:20.426Z,7.20
2017-11-21T13:41:47.157Z,7.30
2017-11-21T13:44:13.899Z,7.30
2017-11-21T13:46:40.630Z,7.40
2017-11-21T13:49:07.355Z,7.40
2017-11-21T13:51:33.369Z,7.40
2017-11-21T13:53:59.350Z,7.40
2017-11-21T13:56:25.315Z,7.40
2017-11-21T13:58:51.301Z,7.40
2017-11-21T14:01:17.269Z,7.30
2017-11-21T14:03:43.250Z,7.40
2017-11-21T14:06:09.422Z,7.20
2017-11-21T14:08:36.136Z,7.10
2017-11-21T14:11:02.106Z,7.10
2017-11-21T14:13:28.082Z,7.20
2017-11-21T14:15:55.550Z,7.30
2017-11-21T14:18:21.541Z,7.30
2017-11-21T14:20:47.514Z,7.40
2017-11-21T14:23:14.249Z,7.20
2017-11-21T14:25:41.361Z,7.30
2017-11-21T14:28:07.368Z,7.30
2017-11-21T14:30:33.361Z,7.30
2017-11-21T14:32:59.712Z,7.30
2017-11-21T14:35:25.683Z,7.40
2017-11-21T14:37:52.434Z,7.30
2017-11-21T14:40:19.174Z,7.30
2017-11-21T14:42:45.904Z,7.30
2017-11-21T14:45:12.639Z,7.40
2017-11-21T14:47:38.963Z,7.40
2017-11-21T14:50:05.711Z,7.20
2017-11-21T14:52:32.429Z,7.20
2017-11-21T14:54:58.772Z,7.20
2017-11-21T14:57:25.500Z,6.90
2017-11-21T14:59:51.510Z,7.00
2017-11-21T15:02:17.486Z,7.00
2017-11-21T15:04:43.494Z,7.10
2017-11-21T15:07:10.316Z,7.30
2017-11-21T15:09:37.054Z,7.10
2017-11-21T15:12:03.042Z,7.10
2017-11-21T15:14:29.056Z,7.20
2017-11-21T15:16:55.021Z,7.20
2017-11-21T15:19:21.803Z,7.00
2017-11-21T15:21:48.097Z,7.00
2017-11-21T15:24:14.807Z,7.20
2017-11-21T15:26:40.830Z,7.20
2017-11-21T15:29:06.975Z,7.20
2017-11-21T15:31:33.725Z,7.20
2017-11-21T15:34:00.455Z,7.20
2017-11-21T15:36:27.416Z,7.20
2017-11-21T15:38:53.416Z,7.10
2017-11-21T15:41:19.401Z,7.20
2017-11-21T15:43:45.398Z,7.20
2017-11-21T15:46:11.599Z,7.30
2017-11-21T15:48:38.335Z,7.20
2017-11-21T15:51:05.053Z,7.10
2017-11-21T15:53:31.146Z,7.10
2017-11-21T15:55:57.163Z,7.10
2017-11-21T15:58:23.157Z,7.10
2017-11-21T16:00:49.881Z,6.80
2017-11-21T16:03:16.610Z,6.70
2017-11-21T16:05:42.641Z,6.70
2017-11-21T16:08:09.386Z,6.70
2017-11-21T16:10:36.109Z,6.90
2017-11-21T16:13:02.101Z,6.80
2017-11-21T16:15:28.461Z,6.70
2017-11-21T16:17:54.447Z,6.80
2017-11-21T16:20:20.441Z,7.00
2017-11-21T16:22:46.648Z,6.90
2017-11-21T16:25:13.381Z,7.10
2017-11-21T16:27:40.154Z,7.10
2017-11-21T16:30:06.182Z,7.00
2017-11-21T16:32:32.165Z,7.10
2017-11-21T16:34:58.898Z,7.10
2017-11-21T16:37:25.653Z,7.20
2017-11-21T16:39:51.800Z,7.20
2017-11-21T16:42:17.803Z,7.20
2017-11-21T16:44:44.732Z,7.30
2017-11-21T16:47:11.811Z,7.20
2017-11-21T16:49:37.785Z,7.20
2017-11-21T16:52:03.941Z,7.30
2017-11-21T16:54:30.669Z,7.30
2017-11-21T16:56:57.448Z,7.20
2017-11-21T16:59:23.470Z,7.20
2017-11-21T17:01:49.465Z,7.20
2017-11-21T17:04:16.184Z,6.90
2017-11-21T17:06:42.941Z,6.90
2017-11-21T17:09:09.698Z,7.10
2017-11-21T17:11:35.998Z,7.00
2017-11-21T17:14:02.803Z,7.00
2017-11-21T17:16:28.842Z,7.00
2017-11-21T17:19:02.710Z,7.00
2017-11-21T17:21:28.711Z,7.10
2017-11-21T17:23:54.698Z,7.00
2017-11-21T17:26:21.451Z,7.00
2017-11-21T17:28:48.192Z,7.00
2017-11-21T17:31:14.956Z,7.00
2017-11-21T17:33:40.961Z,7.00
2017-11-21T17:36:07.688Z,6.80
2017-11-21T17:38:34.425Z,7.00
2017-11-21T17:41:01.186Z,7.10
2017-11-21T17:43:27.399Z,7.00
2017-11-21T17:45:54.125Z,7.00
2017-11-21T17:48:20.853Z,7.10
2017-11-21T17:50:46.840Z,7.00
2017-11-21T17:53:12.853Z,7.20
2017-11-21T17:55:38.850Z,7.20
2017-11-21T17:58:05.563Z,6.90
2017-11-21T18:00:31.590Z,6.90
2017-11-21T18:03:04.495Z,7.00
2017-11-21T18:05:30.517Z,7.00
2017-11-21T18:07:57.708Z,7.10
2017-11-21T18:10:23.690Z,7.10
2017-11-21T18:12:50.426Z,7.10
2017-11-21T18:15:17.153Z,7.20
2017-11-21T18:17:43.898Z,7.20
2017-11-21T18:20:10.647Z,7.10
2017-11-21T18:22:37.379Z,7.10
2017-11-21T18:25:04.141Z,7.00
2017-11-21T18:27:30.220Z,7.00
2017-11-21T18:29:56.222Z,6.90
2017-11-21T18:32:22.216Z,6.80
2017-11-21T18:34:48.234Z,6.80
2017-11-21T18:37:14.253Z,6.90
2017-11-21T18:39:40.278Z,6.80
2017-11-21T18:42:06.257Z,6.90
2017-11-21T18:44:32.250Z,6.90
2017-11-21T18:46:58.262Z,7.00
2017-11-21T18:49:24.256Z,6.80
2017-11-21T18:51:50.250Z,6.90
2017-11-21T18:54:16.258Z,7.00
2017-11-21T18:56:43.066Z,6.90
2017-11-21T18:59:09.121Z,6.80
2017-11-21T19:01:35.126Z,6.90
2017-11-21T19:04:01.118Z,6.80
2017-11-21T19:06:27.155Z,6.70
2017-11-21T19:08:53.642Z,6.70
2017-11-21T19:11:20.386Z,6.90
2017-11-21T19:13:47.120Z,6.90
2017-11-21T19:16:13.253Z,6.90
2017-11-21T19:18:40.013Z,6.60
2017-11-21T19:21:06.073Z,6.60
2017-11-21T19:23:32.451Z,6.60
2017-11-21T19:25:59.180Z,6.70
2017-11-21T19:28:25.902Z,6.60
2017-11-21T19:30:51.907Z,6.60
2017-11-21T19:33:17.926Z,6.50
2017-11-21T19:35:44.783Z,6.60
2017-11-21T19:38:11.136Z,6.70
2017-11-21T19:40:37.924Z,6.90
2017-11-21T19:43:03.958Z,6.90
2017-11-21T19:45:29.963Z,6.80
2017-11-21T19:47:55.987Z,6.80
2017-11-21T19:50:21.976Z,6.70
2017-11-21T19:52:48.126Z,6.80
2017-11-21T19:55:14.207Z,6.70
2017-11-21T19:57:40.993Z,6.70
2017-11-21T20:00:06.966Z,6.60
2017-11-21T20:02:33.834Z,6.80
2017-11-21T20:04:59.893Z,6.80
2017-11-21T20:07:25.917Z,6.70
2017-11-21T20:09:51.910Z,6.80
2017-11-21T20:12:17.938Z,6.60
2017-11-21T20:14:44.250Z,6.60
2017-11-21T20:17:10.302Z,6.80
2017-11-21T20:19:36.315Z,7.00
2017-11-21T20:22:09.457Z,6.90
2017-11-21T20:24:35.603Z,6.90
2017-11-21T20:27:02.432Z,6.70
2017-11-21T20:29:29.268Z,6.70
2017-11-21T20:31:56.322Z,6.80
2017-11-21T20:34:23.841Z,6.80
2017-11-21T20:36:49.881Z,6.80
2017-11-21T20:39:15.918Z,6.80
2017-11-21T20:41:41.898Z,6.90
2017-11-21T20:44:07.899Z,7.00
2017-11-21T20:46:34.205Z,7.00
2017-11-21T20:49:01.001Z,7.00
2017-11-21T20:51:28.966Z,6.90
2017-11-21T20:53:56.470Z,6.90
2017-11-21T20:56:23.264Z,6.80
2017-11-21T20:58:49.269Z,6.70
2017-11-21T21:01:15.354Z,6.80
2017-11-21T21:03:42.226Z,6.60
2017-11-21T21:06:08.506Z,6.60
2017-11-21T21:08:34.496Z,6.70
2017-11-21T21:11:00.514Z,6.70
2017-11-21T21:13:26.538Z,6.60
2017-11-21T21:15:52.832Z,6.60
2017-11-21T21:18:18.884Z,6.60
2017-11-21T21:20:45.261Z,6.70
2017-11-21T21:23:11.597Z,6.70
2017-11-21T21:25:38.342Z,6.70
2017-11-21T21:28:05.069Z,6.80
2017-11-21T21:30:31.404Z,6.80
2017-11-21T21:32:58.153Z,6.80
2017-11-21T21:35:24.892Z,6.70
2017-11-21T21:37:51.610Z,6.70
2017-11-21T21:40:17.638Z,6.70
2017-11-21T21:42:43.653Z,6.90
2017-11-21T21:45:09.645Z,6.90
2017-11-21T21:47:35.620Z,6.80
2017-11-21T21:50:02.402Z,6.70
2017-11-21T21:52:28.407Z,6.70
2017-11-21T21:54:54.393Z,6.70
2017-11-21T21:57:20.410Z,6.70
2017-11-21T21:59:46.435Z,6.70
2017-11-21T22:02:13.222Z,6.60
2017-11-21T22:04:39.235Z,6.60
2017-11-21T22:07:05.245Z,6.70
2017-11-21T22:09:31.363Z,6.70
2017-11-21T22:11:58.286Z,6.60
2017-11-21T22:14:24.282Z,6.60
2017-11-21T22:16:50.306Z,6.60
2017-11-21T22:19:16.343Z,6.80
2017-11-21T22:21:42.342Z,6.80
2017-11-21T22:24:08.368Z,6.80
2017-11-21T22:26:34.379Z,6.80
2017-11-21T22:29:00.423Z,6.80
2017-11-21T22:31:26.436Z,6.70
2017-11-21T22:33:52.434Z,6.90
2017-11-21T22:36:25.571Z,6.80
2017-11-21T22:38:51.566Z,6.80
2017-11-21T22:41:17.587Z,6.90
2017-11-21T22:43:43.591Z,6.90
2017-11-21T22:46:09.605Z,6.80
2017-11-21T22:48:35.597Z,6.80
2017-11-21T22:51:02.332Z,7.00
2017-11-21T22:53:29.113Z,7.00
2017-11-21T22:55:55.130Z,7.00
2017-11-21T22:58:21.122Z,6.90
2017-11-21T23:00:47.863Z,7.00
2017-11-21T23:03:14.809Z,7.00
2017-11-21T23:05:42.246Z,6.90
2017-11-21T23:08:08.258Z,7.00
2017-11-21T23:10:34.259Z,7.10
2017-11-21T23:13:00.475Z,7.20
2017-11-21T23:15:26.465Z,7.30
2017-11-21T23:17:53.207Z,7.10
2017-11-21T23:20:20.591Z,7.10
2017-11-21T23:22:46.769Z,7.10
2017-11-21T23:25:12.774Z,7.20
2017-11-21T23:27:38.771Z,7.20
2017-11-21T23:30:04.816Z,7.20
2017-11-21T23:32:30.838Z,7.20
2017-11-21T23:34:56.898Z,7.20
2017-11-21T23:37:23.216Z,7.30
2017-11-21T23:39:49.937Z,7.30
2017-11-21T23:42:15.909Z,7.30
2017-11-21T23:44:41.952Z,7.40
2017-11-21T23:47:07.949Z,7.40
2017-11-21T23:49:33.931Z,7.50
2017-11-21T23:52:00.223Z,7.50
2017-11-21T23:54:26.242Z,7.50
2017-11-21T23:56:52.221Z,7.60
2017-11-21T23:59:19.049Z,7.60
